首页
METAR-TAF:

METAR-TAF

机场 :

MidCoast Regional Airport / Wright Army Airfield

Hinesville, 喬治亞, 美国

纬度: 31-53N, 经度: 081-34W, 海拔: 14米

当前天气观测

该预报发布于38分钟前的10:56 UTC
风速5节,风向北转东北
温度 19°C
湿度 78%
气压 1020 hPa
能見度: 16.1公里
少量云层高于8500英尺

METAR: KLHW 191056Z 02005KT 10SM FEW085 19/15 A3011 RMK AO2A SLP199 T01920151 $

时间: 07:34 (11:34 UTC)


TAF: 丢失

超过4000个机场的气象观测和天气预报(METAR&TAF报告)。

可查询的气象台以黄色和红色小点在地图上表示。

将鼠标移到小点上方,可查看气象台名称。

然后点击查看天气观测和预报。

如需切换地图:点击带黑十字的绿色按钮放大地图;点击带横线的绿色按钮缩小地图;或者点击绿色箭头查看邻近地区的地图。


METAR-TAF: